Time;durP1;ratioP1;P1;durP2;ratioP2;P2;SDS_P1;SDS_P2;PMS_P1;PMS_P2;Temp;Humidity;BMP_temperature;BMP_pressure;BME280_temperature;BME280_humidity;BME280_pressure;Samples;Min_cycle;Max_cycle;Signal;HPM_P1;HPM_P2
2022/01/12 00:01:36;;;;;;;67.63;25.98;;;;;;;;;;6227008;22;20023;-93
2022/01/12 00:04:02;;;;;;;62.95;26.83;;;;;;;;;;6227333;22;20023;-94
2022/01/12 00:06:28;;;;;;;60.25;25.58;;;;;;;;;;6226635;22;20012;-94
2022/01/12 00:08:55;;;;;;;74.25;27.67;;;;;;;;;;6227020;22;20022;-94
2022/01/12 00:11:22;;;;;;;73.05;27.92;;;;;;;;;;6226758;22;20055;-94
2022/01/12 00:13:51;;;;;;;66.13;25.20;;;;;;;;;;6228104;22;20095;-94
2022/01/12 00:16:17;;;;;;;91.75;29.67;;;;;;;;;;6226803;22;20016;-94
2022/01/12 00:18:45;;;;;;;71.30;26.27;;;;;;;;;;6226115;22;20026;-94
2022/01/12 00:21:12;;;;;;;74.03;26.88;;;;;;;;;;6226744;22;20352;-94
2022/01/12 00:23:39;;;;;;;94.97;29.80;;;;;;;;;;6227151;22;20425;-94
2022/01/12 00:26:23;;;;;;;100.15;28.55;;;;;;;;;;6226848;22;20475;-94
2022/01/12 00:34:19;;;;;;;68.43;27.02;;;;;;;;;;6251583;22;20086;-94
2022/01/12 00:36:45;;;;;;;87.00;29.25;;;;;;;;;;6227367;22;20047;-94
2022/01/12 00:39:11;;;;;;;76.75;27.75;;;;;;;;;;6226593;22;20016;-94
2022/01/12 00:41:38;;;;;;;86.68;29.58;;;;;;;;;;6227560;22;20017;-94
2022/01/12 00:44:08;;;;;;;88.00;30.38;;;;;;;;;;6225578;22;20098;-94
2022/01/12 00:46:34;;;;;;;107.35;30.83;;;;;;;;;;6226899;22;20012;-93
2022/01/12 00:49:00;;;;;;;134.38;30.42;;;;;;;;;;6226052;22;20067;-94
2022/01/12 00:51:27;;;;;;;125.43;34.05;;;;;;;;;;6227680;22;20046;-95
2022/01/12 00:53:54;;;;;;;83.97;28.33;;;;;;;;;;6226480;22;20114;-95
2022/01/12 00:56:20;;;;;;;106.55;30.70;;;;;;;;;;6226287;22;20446;-94
2022/01/12 00:58:46;;;;;;;136.38;31.23;;;;;;;;;;6226586;22;20012;-95
2022/01/12 01:01:13;;;;;;;133.05;35.35;;;;;;;;;;6226976;22;20051;-96
2022/01/12 01:03:39;;;;;;;97.88;29.58;;;;;;;;;;6225824;22;20020;-95
2022/01/12 01:06:08;;;;;;;152.02;32.30;;;;;;;;;;6226129;22;20099;-95
2022/01/12 01:08:34;;;;;;;86.40;28.52;;;;;;;;;;6226352;22;20069;-95
2022/01/12 01:11:00;;;;;;;142.57;32.45;;;;;;;;;;6247474;22;20027;-94
2022/01/12 01:13:34;;;;;;;149.55;34.35;;;;;;;;;;6251495;22;20457;-95
2022/01/12 01:16:20;;;;;;;202.77;38.20;;;;;;;;;;6251798;22;20012;-94
2022/01/12 01:27:01;;;;;;;126.10;34.53;;;;;;;;;;6277301;22;20015;-94
2022/01/12 01:29:27;;;;;;;154.15;34.33;;;;;;;;;;6254397;22;20015;-93
2022/01/12 01:31:53;;;;;;;94.30;29.48;;;;;;;;;;6254063;22;20012;-96
2022/01/12 01:34:19;;;;;;;277.80;42.50;;;;;;;;;;6254529;22;20058;-94
2022/01/12 01:36:45;;;;;;;150.30;33.95;;;;;;;;;;6254088;22;20575;-96
2022/01/12 01:39:13;;;;;;;108.47;30.83;;;;;;;;;;6253906;22;20019;-94
2022/01/12 01:41:42;;;;;;;86.28;28.27;;;;;;;;;;6254000;22;20020;-94
2022/01/12 01:54:48;;;;;;;121.95;27.35;;;;;;;;;;6279445;22;20020;-95
2022/01/12 01:57:15;;;;;;;81.25;28.52;;;;;;;;;;6254068;22;20011;-95
2022/01/12 01:59:41;;;;;;;116.07;27.95;;;;;;;;;;6253976;22;20018;-94
2022/01/12 02:02:07;;;;;;;100.38;29.38;;;;;;;;;;6253426;22;20519;-94
2022/01/12 02:04:33;;;;;;;78.05;26.80;;;;;;;;;;6252989;22;20043;-95
2022/01/12 02:07:00;;;;;;;68.85;26.27;;;;;;;;;;6253282;22;20019;-95
2022/01/12 02:09:26;;;;;;;71.10;26.17;;;;;;;;;;6253520;22;20030;-95
2022/01/12 02:11:53;;;;;;;79.63;26.48;;;;;;;;;;6228010;22;20020;-94
2022/01/12 02:14:20;;;;;;;76.28;25.90;;;;;;;;;;6228109;22;20027;-94
2022/01/12 02:16:57;;;;;;;79.47;26.42;;;;;;;;;;6226760;22;20473;-94
2022/01/12 02:35:51;;;;;;;71.95;26.20;;;;;;;;;;6253270;22;20023;-94
2022/01/12 02:40:53;;;;;;;62.95;24.55;;;;;;;;;;6252156;22;20057;-93
2022/01/12 02:51:35;;;;;;;65.82;25.05;;;;;;;;;;6161000;23;20058;-93
2022/01/12 02:54:03;;;;;;;76.68;25.83;;;;;;;;;;6136478;23;20459;-94
2022/01/12 02:56:33;;;;;;;61.08;22.02;;;;;;;;;;6136704;23;20076;-93
2022/01/12 02:58:59;;;;;;;57.72;23.25;;;;;;;;;;6137149;23;20017;-92
2022/01/12 03:03:58;;;;;;;62.60;22.58;;;;;;;;;;6161274;23;20200;-93
2022/01/12 03:06:28;;;;;;;59.30;21.95;;;;;;;;;;6136289;23;20024;-94
2022/01/12 03:08:54;;;;;;;53.80;22.08;;;;;;;;;;6135878;23;20017;-94
2022/01/12 03:11:21;;;;;;;59.47;21.65;;;;;;;;;;6136347;23;20069;-96
2022/01/12 03:13:47;;;;;;;48.80;21.73;;;;;;;;;;6136391;23;20017;-95
2022/01/12 03:16:25;;;;;;;64.90;22.02;;;;;;;;;;6136557;23;20045;-94
2022/01/12 03:18:55;;;;;;;48.63;19.70;;;;;;;;;;6161004;23;20072;-95
2022/01/12 03:21:23;;;;;;;59.88;21.48;;;;;;;;;;6136771;23;20020;-95
2022/01/12 03:23:50;;;;;;;60.20;21.52;;;;;;;;;;6136150;23;20027;-94
2022/01/12 03:26:16;;;;;;;59.42;19.50;;;;;;;;;;6136300;23;20475;-93
2022/01/12 03:28:42;;;;;;;49.08;19.63;;;;;;;;;;6188533;22;20015;-94
2022/01/12 03:31:16;;;;;;;45.00;18.23;;;;;;;;;;6226858;22;20322;-93
2022/01/12 03:38:50;;;;;;;49.55;19.60;;;;;;;;;;6251287;22;20407;-95
2022/01/12 03:41:16;;;;;;;46.85;16.98;;;;;;;;;;6227007;22;20454;-95
2022/01/12 03:43:42;;;;;;;49.78;17.73;;;;;;;;;;6228482;22;20087;-95
2022/01/12 03:46:09;;;;;;;42.17;16.67;;;;;;;;;;6227148;22;20016;-94
2022/01/12 03:48:35;;;;;;;39.40;16.52;;;;;;;;;;6227140;22;20319;-95
2022/01/12 03:51:01;;;;;;;44.35;18.35;;;;;;;;;;6227106;22;20060;-95
2022/01/12 03:53:27;;;;;;;49.75;18.40;;;;;;;;;;6226603;22;20015;-95
2022/01/12 03:55:53;;;;;;;38.97;15.38;;;;;;;;;;6227172;22;20398;-93
2022/01/12 03:58:19;;;;;;;44.08;16.45;;;;;;;;;;6227289;22;20023;-93
2022/01/12 04:00:45;;;;;;;41.35;17.05;;;;;;;;;;6226800;22;20015;-93
2022/01/12 04:03:13;;;;;;;40.60;14.20;;;;;;;;;;6227269;22;20441;-95
2022/01/12 04:08:21;;;;;;;47.28;17.17;;;;;;;;;;6303323;22;20034;-93
2022/01/12 04:10:48;;;;;;;39.72;15.45;;;;;;;;;;6257927;22;20081;-93
2022/01/12 04:13:15;;;;;;;40.65;15.82;;;;;;;;;;6258061;22;20012;-93
2022/01/12 04:15:46;;;;;;;40.30;15.15;;;;;;;;;;6256951;22;20147;-93
2022/01/12 04:18:12;;;;;;;38.90;15.27;;;;;;;;;;6256549;22;20011;-93
2022/01/12 04:20:45;;;;;;;266.30;27.08;;;;;;;;;;6256826;22;20015;-93
2022/01/12 04:25:48;;;;;;;22.27;9.10;;;;;;;;;;6271495;22;20027;-94
2022/01/12 04:28:14;;;;;;;117.57;13.90;;;;;;;;;;6257048;22;20506;-94
2022/01/12 04:30:40;;;;;;;39.03;10.30;;;;;;;;;;6257901;22;20013;-94
2022/01/12 04:33:07;;;;;;;18.75;8.23;;;;;;;;;;6258678;22;20137;-94
2022/01/12 04:35:36;;;;;;;20.38;9.20;;;;;;;;;;6258044;22;20012;-95
2022/01/12 04:38:03;;;;;;;18.33;9.02;;;;;;;;;;6257576;22;20019;-95
2022/01/12 04:40:29;;;;;;;29.17;10.60;;;;;;;;;;6228613;22;20019;-95
2022/01/12 04:42:56;;;;;;;24.38;10.73;;;;;;;;;;6253411;22;20011;-96
2022/01/12 04:50:26;;;;;;;29.77;13.02;;;;;;;;;;6252087;22;20023;-95
2022/01/12 04:52:52;;;;;;;25.95;11.10;;;;;;;;;;6253334;22;20016;-94
2022/01/12 04:55:19;;;;;;;26.75;10.88;;;;;;;;;;6251981;22;20031;-95
2022/01/12 04:57:45;;;;;;;29.88;11.50;;;;;;;;;;6253047;22;20016;-95
2022/01/12 05:00:14;;;;;;;29.75;12.13;;;;;;;;;;6252146;22;20020;-95
2022/01/12 05:13:31;;;;;;;40.60;7.32;;;;;;;;;;6284313;22;20015;-94
2022/01/12 05:15:58;;;;;;;7.75;4.60;;;;;;;;;;6260314;22;20102;-95
2022/01/12 05:18:24;;;;;;;225.15;17.40;;;;;;;;;;6259107;22;20046;-95
2022/01/12 05:20:51;;;;;;;218.10;18.05;;;;;;;;;;6260257;22;20019;-96
2022/01/12 05:23:17;;;;;;;98.93;9.85;;;;;;;;;;6259567;22;20019;-95
2022/01/12 05:25:46;;;;;;;105.63;10.48;;;;;;;;;;6257955;22;20023;-96
2022/01/12 05:28:12;;;;;;;247.00;17.45;;;;;;;;;;6259168;22;20019;-94
2022/01/12 05:30:44;;;;;;;247.20;18.13;;;;;;;;;;6260063;22;20515;-95
2022/01/12 05:33:11;;;;;;;264.48;23.25;;;;;;;;;;6260101;22;20012;-95
2022/01/12 05:35:37;;;;;;;64.43;8.68;;;;;;;;;;6260607;22;20375;-95
2022/01/12 05:38:04;;;;;;;206.25;16.45;;;;;;;;;;6263044;22;20011;-95
2022/01/12 05:40:31;;;;;;;297.30;23.20;;;;;;;;;;6233218;22;20039;-95
2022/01/12 05:42:59;;;;;;;235.43;17.52;;;;;;;;;;6229485;22;20444;-96
2022/01/12 05:45:26;;;;;;;268.80;17.23;;;;;;;;;;6229119;22;20011;-94
2022/01/12 05:50:19;;;;;;;65.68;10.07;;;;;;;;;;6254240;22;20019;-95
2022/01/12 05:52:45;;;;;;;30.55;7.35;;;;;;;;;;6229036;22;20012;-94
2022/01/12 05:55:13;;;;;;;49.15;9.50;;;;;;;;;;6253289;22;20019;-95
2022/01/12 05:57:39;;;;;;;13.80;6.63;;;;;;;;;;6253506;22;20008;-94
2022/01/12 06:00:09;;;;;;;34.83;7.40;;;;;;;;;;6254474;22;20055;-94
2022/01/12 06:02:35;;;;;;;34.28;8.07;;;;;;;;;;6253524;22;20012;-95
2022/01/12 06:05:01;;;;;;;70.57;10.15;;;;;;;;;;6273414;22;20022;-95
2022/01/12 06:07:27;;;;;;;27.42;8.00;;;;;;;;;;6279839;22;20016;-95
2022/01/12 06:09:53;;;;;;;87.45;11.90;;;;;;;;;;6279035;22;20015;-96
2022/01/12 06:12:20;;;;;;;104.47;13.35;;;;;;;;;;6279256;22;20019;-95
2022/01/12 06:14:46;;;;;;;173.20;17.42;;;;;;;;;;6278052;22;20047;-92
2022/01/12 06:17:12;;;;;;;123.03;15.43;;;;;;;;;;6277677;22;20086;-93
2022/01/12 06:19:39;;;;;;;124.30;14.57;;;;;;;;;;6279457;22;20020;-92
2022/01/12 06:22:05;;;;;;;217.82;21.55;;;;;;;;;;6278383;22;20015;-91
2022/01/12 06:24:31;;;;;;;58.13;9.70;;;;;;;;;;6277469;22;20015;-93
2022/01/12 06:29:49;;;;;;;24.67;7.53;;;;;;;;;;6258249;22;20027;-93
2022/01/12 06:35:25;;;;;;;118.35;12.80;;;;;;;;;;6307804;22;20032;-91
2022/01/12 06:38:00;;;;;;;173.05;17.60;;;;;;;;;;6240690;22;20047;-90
2022/01/12 07:07:46;;;;;;;;;;;;;;;;;;;;;
2022/01/12 07:19:49;;;;;;;70.32;8.88;;;1.80;99.90;;;;;;6296827;22;20020;-91
2022/01/12 07:22:33;;;;;;;39.90;7.18;;;;;;;;;;6265811;22;20029;-93
2022/01/12 09:31:36;;;;;;;36.63;6.25;;;;;;;;;;6239740;22;20023;-93
2022/01/12 09:34:41;;;;;;;;;;;;;;;;;;;;;
2022/01/12 09:37:47;;;;;;;;;;;;;;;;;;;;;
2022/01/12 09:40:48;;;;;;;57.25;9.40;;;;;;;;;;6216405;23;20036;-91
2022/01/12 09:46:41;;;;;;;199.50;16.98;;;;;;;;;;6269827;22;20138;-92
2022/01/12 09:53:15;;;;;;;76.85;10.27;;;;;;;;;;6217403;22;20023;-93
2022/01/12 09:55:48;;;;;;;;;;;;;;;;;;6263596;22;20065;-91
2022/01/12 09:58:35;;;;;;;59.25;9.40;;;;;;;;;;6260000;22;19989;-91
2022/01/12 10:06:50;;;;;;;69.45;8.93;;;;;;;;;;6310275;22;20130;-92
2022/01/12 10:23:28;;;;;;;22.10;5.80;;;;;;;;;;6306375;22;20056;-92
2022/01/12 11:02:53;;;;;;;36.45;6.95;;;;;;;;;;6340817;22;20023;-91
2022/01/12 11:05:37;;;;;;;70.97;9.13;;;;;;;;;;6287988;22;20070;-92
2022/01/12 12:01:22;;;;;;;39.90;9.30;;;;;;;;;;6309612;22;20413;-91
2022/01/12 12:03:57;;;;;;;33.28;10.80;;;;;;;;;;6285534;22;20350;-91
2022/01/12 12:07:28;;;;;;;;;;;;;;;;;;;;;
2022/01/12 12:13:20;;;;;;;28.48;10.35;;;;;;;;;;6257797;22;20439;-92
2022/01/12 12:16:30;;;;;;;;;;;;;;;;;;;;;
2022/01/12 12:19:37;;;;;;;;;;;;;;;;;;;;;
2022/01/12 12:23:15;;;;;;;25.20;9.75;;;;;;;;;;6184315;23;20088;-91
2022/01/12 12:25:54;;;;;;;35.65;10.68;;;;;;;;;;6076576;23;20423;-92
2022/01/12 12:31:46;;;;;;;30.48;10.05;;;;;;;;;;6065838;23;20067;-94
2022/01/12 12:34:28;;;;;;;41.17;11.88;;;;;;;;;;6043035;23;20030;-93
2022/01/12 12:37:09;;;;;;;31.13;11.02;;;;;;;;;;6042470;23;20025;-90
2022/01/12 12:40:14;;;;;;;32.40;11.07;;;;;;;;;;5952299;23;20063;-92
2022/01/12 12:42:44;;;;;;;25.67;9.55;;;;;;;;;;5907853;24;20047;-94
2022/01/12 12:45:56;;;;;;;;;;;;;;;;;;;;;
2022/01/12 12:49:04;;;;;;;30.63;10.80;;;;;;;;;;5899035;24;20034;-92
2022/01/12 12:54:24;;;;;;;23.00;9.20;;;;;;;;;;5981820;23;20084;-90
2022/01/12 12:57:06;;;;;;;25.17;8.85;;;;;;;;;;5982001;23;20008;-94
2022/01/12 12:59:44;;;;;;;25.67;8.70;;;;;;;;;;5967212;23;20340;-94
2022/01/12 13:02:57;;;;;;;18.70;9.25;;;;;;;;;;5951833;24;20095;-91
2022/01/12 13:05:41;;;;;;;24.50;9.43;;;;;;;;;;5878388;24;20020;-92
2022/01/12 13:08:16;;;;;;;25.50;9.88;;;;;;;;;;5851955;24;20022;-91
2022/01/12 13:10:45;;;;;;;26.50;8.90;;;;;;;;;;5872882;24;20025;-91
2022/01/12 13:13:13;;;;;;;25.85;8.77;;;;;;;;;;5873472;24;20022;-90
2022/01/12 13:15:41;;;;;;;22.75;9.45;;;;;;;;;;5873058;24;20089;-90
2022/01/12 13:18:07;;;;;;;21.60;9.02;;;;;;;;;;5900720;24;20032;-89
2022/01/12 13:23:54;;;;;;;34.08;9.52;;;;;;;;;;5975314;24;20037;-91
2022/01/12 13:26:31;;;;;;;20.23;8.35;;;;;;;;;;5976168;24;20130;-90
2022/01/12 13:29:04;;;;;;;25.00;10.38;;;;;;;;;;5954156;24;20035;-90
2022/01/12 13:31:33;;;;;;;27.27;9.00;;;;;;;;;;6039753;23;20024;-89
2022/01/12 13:34:00;;;;;;;24.92;9.05;;;;;;;;;;6123975;23;20014;-89
2022/01/12 13:36:27;;;;;;;30.20;10.02;;;;;;;;;;6125928;23;20465;-91
2022/01/12 13:39:12;;;;;;;25.60;9.10;;;;;;;;;;6101949;23;20014;-89
2022/01/12 13:41:40;;;;;;;23.85;8.80;;;;;;;;;;6188045;22;20136;-89
2022/01/12 13:44:18;;;;;;;31.73;10.85;;;;;;;;;;6237088;22;20041;-91
2022/01/12 13:47:03;;;;;;;28.30;10.32;;;;;;;;;;6184892;23;20089;-90
2022/01/12 13:49:34;;;;;;;;;;;;;;;;;;6160879;23;20418;-89
2022/01/12 13:52:05;;;;;;;26.15;8.45;;;;;;;;;;6160273;23;19916;-89
2022/01/12 13:54:35;;;;;;;27.30;9.15;;;;;;;;;;6160006;23;20017;-90
2022/01/12 13:57:06;;;;;;;32.10;10.73;;;;;;;;;;6160355;23;20019;-93
2022/01/12 14:00:10;;;;;;;31.58;8.73;;;;;;;;;;6168865;23;20023;-91
2022/01/12 14:02:42;;;;;;;29.33;9.90;;;;;;;;;;6107429;23;20046;-88
2022/01/12 14:05:16;;;;;;;24.95;10.18;;;;;;;;;;6101543;23;20022;-91
2022/01/12 14:07:59;;;;;;;32.72;9.90;;;;;;;;;;6077595;23;20075;-91
2022/01/12 14:10:28;;;;;;;54.60;10.77;;;;;;;;;;6104788;23;20018;-92
2022/01/12 14:12:55;;;;;;;41.75;10.38;;;;;;;;;;6079973;23;20313;-90
2022/01/12 14:16:21;;;;;;;;;;;;;;;;;;;;;
2022/01/12 14:18:58;;;;;;;43.53;10.55;;;;;;;;;;6190021;23;20017;-94
2022/01/12 14:21:27;;;;;;;29.13;9.95;;;;;;;;;;6190406;23;20017;-92
2022/01/12 14:23:55;;;;;;;26.58;10.18;;;;;;;;;;6195127;23;20017;-90
2022/01/12 14:26:31;;;;;;;52.50;11.73;;;;;;;;;;6193648;23;20016;-88
2022/01/12 14:29:00;;;;;;;24.15;9.75;;;;;;;;;;6194514;23;20024;-90
2022/01/12 14:31:26;;;;;;;42.00;10.48;;;;;;;;;;6192901;23;20020;-89
2022/01/12 14:33:53;;;;;;;33.97;12.18;;;;;;;;;;6226824;22;20023;-88
2022/01/12 14:36:27;;;;;;;26.23;10.57;;;;;;;;;;6254320;22;20098;-90
2022/01/12 14:38:56;;;;;;;45.65;12.45;;;;;;;;;;6252300;22;20012;-96
2022/01/12 14:41:23;;;;;;;27.00;10.93;;;;;;;;;;6255271;22;20015;-92
2022/01/12 14:43:52;;;;;;;21.60;9.38;;;;;;;;;;6253004;22;20065;-92
2022/01/12 14:46:19;;;;;;;36.47;10.82;;;;;;;;;;6251937;22;20082;-90
2022/01/12 14:48:45;;;;;;;35.22;10.48;;;;;;;;;;6230607;22;20026;-91
2022/01/12 14:51:11;;;;;;;35.88;11.07;;;;;;;;;;6225750;22;20020;-93
2022/01/12 14:53:37;;;;;;;36.30;11.20;;;;;;;;;;6224479;22;20143;-94
2022/01/12 14:56:04;;;;;;;28.75;10.27;;;;;;;;;;6222961;22;20016;-89
2022/01/12 14:58:31;;;;;;;41.65;11.25;;;;;;;;;;6227941;22;20016;-92
2022/01/12 15:00:57;;;;;;;44.40;10.95;;;;;;;;;;6229995;22;20023;-92
2022/01/12 15:03:26;;;;;;;26.08;10.07;;;;;;;;;;6228928;22;20032;-93
2022/01/12 15:05:53;;;;;;;30.52;11.15;;;;;;;;;;6255569;22;20018;-90
2022/01/12 15:08:21;;;;;;;25.25;10.32;;;;;;;;;;6251799;22;20024;-92
2022/01/12 15:10:56;;;;;;;42.67;10.68;;;;;;;;;;6225132;22;20030;-89
2022/01/12 15:13:26;;;;;;;25.88;9.45;;;;;;;;;;6250381;22;20012;-89
2022/01/12 15:16:03;;;;;;;41.95;11.32;;;;;;;;;;6251421;22;20161;-94
2022/01/12 15:18:30;;;;;;;17.73;9.00;;;;;;;;;;6228223;22;20039;-94
2022/01/12 15:20:56;;;;;;;17.48;8.25;;;;;;;;;;6250150;22;20019;-93
2022/01/12 15:23:22;;;;;;;32.15;10.63;;;;;;;;;;6251650;22;20091;-94
2022/01/12 15:25:59;;;;;;;21.70;10.38;;;;;;;;;;6251594;22;20441;-91
2022/01/12 15:28:40;;;;;;;28.65;9.55;;;;;;;;;;6228306;22;20027;-94
2022/01/12 15:31:07;;;;;;;30.33;10.30;;;;;;;;;;6254357;22;20015;-92
2022/01/12 15:33:33;;;;;;;25.13;10.32;;;;;;;;;;6229176;22;20098;-92
2022/01/12 15:35:59;;;;;;;24.98;9.10;;;;;;;;;;6228968;22;20319;-91
2022/01/12 15:38:25;;;;;;;30.40;9.55;;;;;;;;;;6255476;22;20031;-94
2022/01/12 15:41:12;;;;;;;29.52;9.95;;;;;;;;;;6256858;22;20035;-93
2022/01/12 15:43:39;;;;;;;30.90;10.00;;;;;;;;;;6253999;22;20098;-90
2022/01/12 15:48:40;;;;;;;60.42;11.52;;;;;;;;;;6291597;22;20023;-92
2022/01/12 15:51:06;;;;;;;31.33;10.35;;;;;;;;;;6259873;22;20031;-91
2022/01/12 15:53:36;;;;;;;34.38;10.68;;;;;;;;;;6261097;22;20011;-90
2022/01/12 15:56:02;;;;;;;28.50;10.20;;;;;;;;;;6285596;22;20019;-89
2022/01/12 15:58:28;;;;;;;31.67;9.60;;;;;;;;;;6259620;22;20011;-91
2022/01/12 16:03:51;;;;;;;;;;;;;;;;;;6195396;22;20021;-89
2022/01/12 16:06:20;;;;;;;50.45;11.70;;;;;;;;;;6169156;23;19916;-91
2022/01/12 16:09:02;;;;;;;36.80;10.38;;;;;;;;;;6194495;23;20040;-90
2022/01/12 16:11:50;;;;;;;26.98;11.40;;;;;;;;;;6218913;23;20103;-94
2022/01/12 16:14:48;;;;;;;42.60;13.57;;;;;;;;;;6192656;23;20112;-92
2022/01/12 16:17:20;;;;;;;30.20;13.23;;;;;;;;;;6105733;23;20050;-91
2022/01/12 16:19:49;;;;;;;63.55;13.38;;;;;;;;;;6104378;23;20017;-89
2022/01/12 16:22:16;;;;;;;35.53;11.32;;;;;;;;;;6104165;23;20018;-91
2022/01/12 16:24:45;;;;;;;56.90;14.73;;;;;;;;;;6104879;23;20456;-91
2022/01/12 16:27:20;;;;;;;81.97;16.40;;;;;;;;;;6103985;23;20069;-93
2022/01/12 16:29:52;;;;;;;23.20;10.77;;;;;;;;;;6105181;23;20061;-91
2022/01/12 16:32:30;;;;;;;;;;;;;;;;;;;;;
2022/01/12 16:41:06;;;;;;;35.78;14.02;;;;;;;;;;6301909;22;20102;-89
2022/01/12 16:43:41;;;;;;;36.38;13.88;;;;;;;;;;6260393;22;20436;-90
2022/01/12 16:46:10;;;;;;;49.10;15.30;;;;;;;;;;6260465;22;20015;-90
2022/01/12 16:48:36;;;;;;;38.13;14.48;;;;;;;;;;6258131;22;20498;-90
2022/01/12 16:51:15;;;;;;;48.90;17.00;;;;;;;;;;6260057;22;20022;-90
2022/01/12 16:56:54;;;;;;;46.25;15.85;;;;;;;;;;6163084;23;20120;-91
2022/01/12 16:59:23;;;;;;;46.85;15.23;;;;;;;;;;6162930;23;20025;-89
2022/01/12 17:01:51;;;;;;;53.97;16.67;;;;;;;;;;6165751;23;20017;-91
2022/01/12 17:04:20;;;;;;;45.85;14.73;;;;;;;;;;6166010;23;20024;-90
2022/01/12 17:06:47;;;;;;;61.20;17.63;;;;;;;;;;6166804;23;20013;-91
2022/01/12 17:09:15;;;;;;;38.28;14.38;;;;;;;;;;6166673;23;20028;-90
2022/01/12 17:11:42;;;;;;;49.25;15.40;;;;;;;;;;6164099;23;20013;-90
2022/01/12 17:14:10;;;;;;;30.00;14.00;;;;;;;;;;6164676;23;20020;-90
2022/01/12 17:16:59;;;;;;;44.33;14.73;;;;;;;;;;6189850;23;20024;-90
2022/01/12 17:19:34;;;;;;;43.47;16.45;;;;;;;;;;6164995;23;20087;-90
2022/01/12 17:22:07;;;;;;;40.85;15.82;;;;;;;;;;6164653;23;20028;-91
2022/01/12 17:24:52;;;;;;;38.03;18.58;;;;;;;;;;6164690;23;20017;-90
2022/01/12 17:27:22;;;;;;;42.00;16.73;;;;;;;;;;6164225;23;20017;-90
2022/01/12 17:29:51;;;;;;;46.83;18.08;;;;;;;;;;6164784;23;20064;-89
2022/01/12 17:32:23;;;;;;;58.63;20.23;;;;;;;;;;6164802;23;20017;-90
2022/01/12 17:34:49;;;;;;;60.35;21.70;;;;;;;;;;6223294;22;20016;-90
2022/01/12 17:37:17;;;;;;;52.15;22.80;;;;;;;;;;6227564;22;20445;-90
2022/01/12 17:39:48;;;;;;;60.47;24.73;;;;;;;;;;6230311;22;20042;-90
2022/01/12 17:42:16;;;;;;;45.10;22.02;;;;;;;;;;6228441;22;20020;-90
2022/01/12 17:44:52;;;;;;;52.22;19.75;;;;;;;;;;6230654;22;20020;-90
2022/01/12 17:47:26;;;;;;;28.30;14.90;;;;;;;;;;6228490;22;20065;-90
2022/01/12 17:50:08;;;;;;;40.72;17.88;;;;;;;;;;6224282;22;20358;-90
2022/01/12 17:52:48;;;;;;;42.92;16.25;;;;;;;;;;6230562;22;20391;-90
2022/01/12 17:55:18;;;;;;;43.55;17.20;;;;;;;;;;6229014;22;20070;-90
2022/01/12 17:57:47;;;;;;;33.10;15.50;;;;;;;;;;6230719;22;20069;-90
2022/01/12 18:00:29;;;;;;;25.67;13.60;;;;;;;;;;6232067;22;20062;-90
2022/01/12 18:03:03;;;;;;;31.83;13.43;;;;;;;;;;6254933;22;20054;-90
2022/01/12 18:05:29;;;;;;;;;;;;;;;;;;6229927;22;20552;-90
2022/01/12 18:07:56;;;;;;;24.95;12.57;;;;;;;;;;6230167;22;19943;-90
2022/01/12 18:10:22;;;;;;;24.67;12.55;;;;;;;;;;6228816;22;20396;-90
2022/01/12 18:12:49;;;;;;;29.70;13.60;;;;;;;;;;6227702;22;20015;-90
2022/01/12 18:15:15;;;;;;;28.95;13.07;;;;;;;;;;6227943;22;20023;-90
2022/01/12 18:17:42;;;;;;;25.33;11.73;;;;;;;;;;6228016;22;20023;-90
2022/01/12 18:20:09;;;;;;;36.22;14.43;;;;;;;;;;6227359;22;20020;-90
2022/01/12 18:22:35;;;;;;;32.20;15.05;;;;;;;;;;6227161;22;20019;-90
2022/01/12 18:25:01;;;;;;;35.28;13.90;;;;;;;;;;6226829;22;20373;-90
2022/01/12 18:27:28;;;;;;;26.83;13.75;;;;;;;;;;6226882;22;20016;-90
2022/01/12 18:29:54;;;;;;;31.40;14.90;;;;;;;;;;6227093;22;20016;-90
2022/01/12 18:32:20;;;;;;;42.20;16.08;;;;;;;;;;6226756;22;20023;-90
2022/01/12 18:34:51;;;;;;;27.65;13.50;;;;;;;;;;6226952;22;20019;-90
2022/01/12 18:37:17;;;;;;;28.88;14.00;;;;;;;;;;6226953;22;20020;-90
2022/01/12 18:39:44;;;;;;;30.70;15.30;;;;;;;;;;6227350;22;20016;-90
2022/01/12 18:42:10;;;;;;;31.73;15.63;;;;;;;;;;6226477;22;20023;-90
2022/01/12 18:44:37;;;;;;;36.65;14.73;;;;;;;;;;6226721;22;20016;-90
2022/01/12 18:47:03;;;;;;;34.90;14.63;;;;;;;;;;6226764;22;20019;-90
2022/01/12 18:49:29;;;;;;;32.45;15.73;;;;;;;;;;6227036;22;20012;-90
2022/01/12 18:51:55;;;;;;;32.53;15.32;;;;;;;;;;6226656;22;20022;-90
2022/01/12 18:54:22;;;;;;;32.75;16.13;;;;;;;;;;6252402;22;20016;-90
2022/01/12 18:56:48;;;;;;;41.67;17.80;;;;;;;;;;6226734;22;20020;-90
2022/01/12 18:59:14;;;;;;;41.53;16.02;;;;;;;;;;6227438;22;20014;-90
2022/01/12 19:01:41;;;;;;;31.30;15.18;;;;;;;;;;6227101;22;20073;-90
2022/01/12 19:04:07;;;;;;;32.75;16.02;;;;;;;;;;6227230;22;20019;-90
2022/01/12 19:06:34;;;;;;;39.72;15.63;;;;;;;;;;6226764;22;20020;-89
2022/01/12 19:09:00;;;;;;;30.05;10.88;;;;;;;;;;6226509;22;20019;-90
2022/01/12 19:11:26;;;;;;;39.70;16.23;;;;;;;;;;6252159;22;20011;-92
2022/01/12 19:14:09;;;;;;;38.15;15.55;;;;;;;;;;6226804;22;20475;-92
2022/01/12 19:16:36;;;;;;;41.88;16.52;;;;;;;;;;6252181;22;20037;-92
2022/01/12 19:19:03;;;;;;;39.80;17.42;;;;;;;;;;6226982;22;20322;-93
2022/01/12 19:21:29;;;;;;;46.40;17.90;;;;;;;;;;6226577;22;20041;-93
2022/01/12 19:23:55;;;;;;;47.03;15.95;;;;;;;;;;6226040;22;20523;-91
2022/01/12 19:26:21;;;;;;;45.30;17.13;;;;;;;;;;6226756;22;20019;-91
2022/01/12 19:28:48;;;;;;;41.17;17.40;;;;;;;;;;6227035;22;20368;-93
2022/01/12 19:31:14;;;;;;;50.15;18.80;;;;;;;;;;6226629;22;20101;-91
2022/01/12 19:33:40;;;;;;;49.38;19.38;;;;;;;;;;6226615;22;20024;-92
2022/01/12 19:36:06;;;;;;;52.28;19.48;;;;;;;;;;6226840;22;20475;-92
2022/01/12 19:38:32;;;;;;;48.70;19.10;;;;;;;;;;6227825;22;20027;-93
2022/01/12 19:40:59;;;;;;;50.22;18.73;;;;;;;;;;6226575;22;20066;-95
2022/01/12 19:43:26;;;;;;;46.13;19.65;;;;;;;;;;6251269;22;20012;-90
2022/01/12 19:45:53;;;;;;;46.63;17.83;;;;;;;;;;6226334;22;20020;-91
2022/01/12 19:48:19;;;;;;;48.35;18.55;;;;;;;;;;6227685;22;20094;-90
2022/01/12 19:50:47;;;;;;;58.13;21.77;;;;;;;;;;6226719;22;20077;-92
2022/01/12 19:53:28;;;;;;;44.72;19.23;;;;;;;;;;6226069;22;20018;-89
2022/01/12 19:55:59;;;;;;;54.05;18.40;;;;;;;;;;6225767;22;20015;-89
2022/01/12 19:58:27;;;;;;;48.95;19.60;;;;;;;;;;6252056;22;20012;-90
2022/01/12 20:01:03;;;;;;;47.45;21.20;;;;;;;;;;6225700;22;20019;-90
2022/01/12 20:03:39;;;;;;;52.78;19.98;;;;;;;;;;6252840;22;20022;-90
2022/01/12 20:06:09;;;;;;;47.55;18.67;;;;;;;;;;6251533;22;20100;-89
2022/01/12 20:08:45;;;;;;;51.58;19.58;;;;;;;;;;6225975;22;20015;-90
2022/01/12 20:11:12;;;;;;;48.22;19.10;;;;;;;;;;6226093;22;20094;-90
2022/01/12 20:13:38;;;;;;;40.38;18.13;;;;;;;;;;6225938;22;20022;-90
2022/01/12 20:16:11;;;;;;;47.78;20.17;;;;;;;;;;6226929;22;20026;-90
2022/01/12 20:21:54;;;;;;;60.33;20.48;;;;;;;;;;6251304;22;20108;-90
2022/01/12 20:24:27;;;;;;;45.72;19.88;;;;;;;;;;6106426;23;20021;-90
2022/01/12 20:26:55;;;;;;;44.70;19.08;;;;;;;;;;6106592;23;20372;-89
2022/01/12 20:29:23;;;;;;;51.03;19.00;;;;;;;;;;6106196;23;20022;-90
2022/01/12 20:31:49;;;;;;;48.70;17.90;;;;;;;;;;6106531;23;20513;-90
2022/01/12 20:34:16;;;;;;;48.97;19.33;;;;;;;;;;6106050;23;20076;-89
2022/01/12 20:36:43;;;;;;;57.97;20.92;;;;;;;;;;6104924;23;20455;-90
2022/01/12 20:39:10;;;;;;;54.50;21.38;;;;;;;;;;6106001;23;20149;-89
2022/01/12 20:41:36;;;;;;;40.72;18.70;;;;;;;;;;6105541;23;20024;-90
2022/01/12 20:44:05;;;;;;;49.53;21.02;;;;;;;;;;6106340;23;20455;-91
2022/01/12 20:46:33;;;;;;;38.40;17.67;;;;;;;;;;6105748;23;20028;-90
2022/01/12 20:48:59;;;;;;;35.00;18.33;;;;;;;;;;6106704;23;20014;-90
2022/01/12 20:51:26;;;;;;;44.95;18.73;;;;;;;;;;6130309;23;20017;-90
2022/01/12 20:53:52;;;;;;;40.78;18.50;;;;;;;;;;6105887;23;20018;-90
2022/01/12 20:56:22;;;;;;;42.63;20.00;;;;;;;;;;6129499;23;20020;-90
2022/01/12 20:58:55;;;;;;;48.75;19.20;;;;;;;;;;6109295;23;20386;-90
2022/01/12 21:01:24;;;;;;;45.65;18.40;;;;;;;;;;6196501;23;20016;-90
2022/01/12 21:03:51;;;;;;;45.40;19.05;;;;;;;;;;6195218;23;20074;-90
2022/01/12 21:06:18;;;;;;;40.70;18.63;;;;;;;;;;6195150;23;20099;-89
2022/01/12 21:08:53;;;;;;;47.60;19.92;;;;;;;;;;6197915;23;20012;-90
2022/01/12 21:11:19;;;;;;;46.60;18.50;;;;;;;;;;6220378;23;20077;-89
2022/01/12 21:13:50;;;;;;;45.63;19.20;;;;;;;;;;6195415;23;20020;-90
2022/01/12 21:16:17;;;;;;;41.50;20.38;;;;;;;;;;6195906;23;20020;-91
2022/01/12 21:18:43;;;;;;;46.25;19.58;;;;;;;;;;6195904;23;20019;-93
2022/01/12 21:21:09;;;;;;;50.33;19.95;;;;;;;;;;6195701;23;20098;-92
2022/01/12 21:23:36;;;;;;;51.63;21.40;;;;;;;;;;6197416;23;20517;-93
2022/01/12 21:26:02;;;;;;;47.47;16.30;;;;;;;;;;6195198;23;20027;-91
2022/01/12 21:28:43;;;;;;;53.33;19.60;;;;;;;;;;6195475;23;20012;-93
2022/01/12 21:31:09;;;;;;;41.05;19.10;;;;;;;;;;6221126;23;20104;-91